MOL Partner — 3EBZ5 — position and weather

sailwx.info

Track history (hours):
 
Tides and Currents Weather Stations Pressure Air Temp Water Temp Dewpoint Dewpoint Depression Visibility Wind Speed Wind Dir Waves Ship Positions

MOL Partner

Last reported at 2016-May-23 02:31 UTC. Time now 2016-May-25 11:06 UTC.
Position N 48°28' W 126°26'.

Length 293 m; draft 13.6 m.

Type: Ship (hazmat cat D). MMSI: 371303000.

Date/timePositionNaut miles runAvg speedWind from/ knotsBaromVisibWave heightAir tempDewpointWater temp
2016-May-23 02:31N 48°28' W 126°26'1213.0
2016-May-23 01:34N 48°28' W 126°07'1313.1
2016-May-23 00:34N 48°29' W 125°48'1313.2
2016-May-22 23:33N 48°30' W 125°28'1413.5
2016-May-22 22:33N 48°31' W 125°07'5012.5
2016-May-22 18:33N 48°17' W 123°55'1413.7
2016-May-22 17:30N 48°15' W 123°34'1111.5
2016-May-22 16:33N 48°09' W 123°20'1817.8
2016-May-22 15:33N 48°12' W 122°54'1919.2
2016-May-22 14:33N 47°58' W 122°34'1514.5
2016-May-22 13:34N 47°44' W 122°26'9 8.9
2016-May-22 12:34N 47°36' W 122°22'1 0.8
2016-May-22 11:32N 47°36' W 122°21'0 0.0
2016-May-22 10:32N 47°36' W 122°20'0 0.0
2016-May-22 09:32N 47°36' W 122°21'0 0.0
2016-May-22 08:32N 47°36' W 122°21'0 0.0
2016-May-22 07:29N 47°36' W 122°20'0 0.0
2016-May-22 06:32N 47°36' W 122°20'0 0.0
2016-May-22 05:32N 47°36' W 122°21'0 0.0
2016-May-22 04:32N 47°36' W 122°21'0 0.0
2016-May-22 03:29N 47°36' W 122°21'0 0.0
2016-May-22 02:32N 47°36' W 122°21'0 0.0
2016-May-22 01:32N 47°36' W 122°21'0 0.0
2016-May-22 00:32N 47°36' W 122°21'0 0.0
2016-May-21 23:32N 47°36' W 122°21'0 0.0
2016-May-21 22:32N 47°36' W 122°21'0 0.0
2016-May-21 21:29N 47°36' W 122°21'0 0.0
2016-May-21 20:32N 47°36' W 122°21'0 0.0
2016-May-21 19:32N 47°36' W 122°21'0 0.0
2016-May-21 18:32N 47°36' W 122°21'0 0.0
2016-May-21 17:33N 47°36' W 122°21'0 0.0
2016-May-21 16:32N 47°36' W 122°21'0 0.0
2016-May-21 15:33N 47°36' W 122°20'0 0.0
2016-May-21 14:32N 47°36' W 122°20'0 0.0
2016-May-21 13:33N 47°36' W 122°21'0 0.0
2016-May-21 12:32N 47°36' W 122°21'0 0.0
2016-May-21 11:32N 47°36' W 122°21'0 0.0
2016-May-21 10:32N 47°36' W 122°21'0 0.0
2016-May-21 09:32N 47°36' W 122°20'0 0.0
2016-May-21 08:32N 47°36' W 122°21'0 0.0
2016-May-21 07:32N 47°36' W 122°20'0 0.0
2016-May-21 06:32N 47°36' W 122°21'0 0.0
2016-May-21 05:32N 47°36' W 122°21'0 0.0
2016-May-21 04:32N 47°36' W 122°21'0 0.0
2016-May-21 03:32N 47°36' W 122°21'0 0.0
2016-May-21 02:33N 47°36' W 122°20'0 0.0
2016-May-21 01:32N 47°36' W 122°21'0 0.0
2016-May-21 00:32N 47°36' W 122°21'0 0.0
2016-May-20 23:33N 47°36' W 122°21'0 0.0
2016-May-20 22:33N 47°36' W 122°21'0 0.0
2016-May-20 21:32N 47°36' W 122°21'0 0.0
2016-May-20 20:32N 47°36' W 122°21'0 0.0
2016-May-20 19:32N 47°36' W 122°20'0 0.0
2016-May-20 18:32N 47°36' W 122°21'0 0.0
2016-May-20 17:32N 47°36' W 122°21'0 0.0
2016-May-20 16:32N 47°36' W 122°20'0 0.0
2016-May-20 15:32N 47°36' W 122°21'0 0.0
2016-May-20 14:32N 47°36' W 122°21'0 0.0
2016-May-20 13:34N 47°36' W 122°21'5 4.5
2016-May-20 12:33N 47°38' W 122°27'1414.5
2016-May-20 11:33N 47°52' W 122°29'1818.2
2016-May-20 10:33N 48°08' W 122°43'1919.1
2016-May-20 09:33N 48°12' W 123°10'1313.1
2016-May-20 08:32N 48°13' W 123°30'1211.7
2016-May-20 07:33N 48°23' W 123°22'1010.4
2016-May-20 06:33N 48°31' W 123°13'1313.4
2016-May-20 05:33N 48°44' W 123°08'1110.6
2016-May-20 04:33N 48°55' W 123°10'6 6.0
2016-May-20 03:33N 49°01' W 123°09'0 0.0
2016-May-20 02:33N 49°01' W 123°09'0 0.0
2016-May-20 01:33N 49°01' W 123°09'0 0.0
2016-May-20 00:33N 49°01' W 123°09'0 0.0
2016-May-19 23:33N 49°01' W 123°09'0 0.0
2016-May-19 22:33N 49°01' W 123°09'0 0.0
2016-May-19 21:33N 49°01' W 123°09'0 0.0
2016-May-19 20:33N 49°01' W 123°09'0 0.0
2016-May-19 19:24N 49°01' W 123°09'0 0.0
2016-May-19 18:33N 49°01' W 123°09'0 0.0
2016-May-19 17:33N 49°01' W 123°09'0 0.0
2016-May-19 16:30N 49°01' W 123°09'0 0.0
2016-May-19 15:33N 49°01' W 123°09'0 0.0
2016-May-19 14:33N 49°01' W 123°09'0 0.0
2016-May-19 13:33N 49°01' W 123°09'0 0.0
2016-May-19 12:33N 49°01' W 123°09'0 0.0
2016-May-19 11:33N 49°01' W 123°09'0 0.0
2016-May-19 10:33N 49°01' W 123°09'0 0.0
2016-May-19 09:33N 49°01' W 123°09'0 0.0
2016-May-19 08:33N 49°01' W 123°09'0 0.0
2016-May-19 07:33N 49°01' W 123°09'0 0.0
2016-May-19 06:33N 49°01' W 123°09'0 0.0
2016-May-19 05:33N 49°01' W 123°09'0 0.0
2016-May-19 04:33N 49°01' W 123°09'0 0.0
2016-May-19 03:33N 49°01' W 123°09'0 0.0
2016-May-19 02:33N 49°01' W 123°09'0 0.0
2016-May-19 01:33N 49°01' W 123°09'0 0.0
2016-May-19 00:33N 49°01' W 123°09'0 0.0
2016-May-18 23:33N 49°01' W 123°09'0 0.0
2016-May-18 22:33N 49°01' W 123°09'0 0.0
2016-May-18 21:33N 49°01' W 123°09'0 0.0
2016-May-18 20:33N 49°01' W 123°09'0 0.0
2016-May-18 19:24N 49°01' W 123°09'0 0.0
2016-May-18 18:33N 49°01' W 123°09'0 0.0
2016-May-18 17:33N 49°01' W 123°09'0 0.0
2016-May-18 16:33N 49°01' W 123°09'0 0.0
2016-May-18 15:33N 49°01' W 123°09'0 0.0
2016-May-18 14:33N 49°01' W 123°09'0 0.0
2016-May-18 13:33N 49°01' W 123°09'0 0.0
2016-May-18 12:33N 49°01' W 123°09'0 0.0
2016-May-18 11:33N 49°01' W 123°09'0 0.0
2016-May-18 10:33N 49°01' W 123°09'0 0.0
2016-May-18 09:33N 49°01' W 123°09'0 0.0
2016-May-18 08:33N 49°01' W 123°09'0 0.0
2016-May-18 07:33N 49°01' W 123°09'0 0.0
2016-May-18 06:33N 49°01' W 123°09'0 0.0
2016-May-18 05:33N 49°01' W 123°09'6 6.2
2016-May-18 04:33N 48°55' W 123°05'1313.0
2016-May-18 03:33N 48°43' W 123°12'1717.3
2016-May-18 02:33N 48°26' W 123°10'1211.8
2016-May-18 01:33N 48°19' W 123°25'9 9.2
2016-May-18 00:33N 48°13' W 123°36'1110.9
2016-May-17 23:33N 48°13' W 123°52'3811.6
2016-May-17 20:17N 48°29' W 124°45'912.8
2016-May-17 19:33N 48°29' W 124°59'1312.7
2016-May-17 18:33N 48°28' W 125°18'1212.3
2016-May-17 17:33N 48°29' W 125°36'1312.7
2016-May-17 16:33N 48°29' W 125°56'1919.3
2016-May-17 15:33N 48°29' W 126°25'1414.1
2016-May-17 14:33N 48°29' W 126°46'1312.7
2016-May-17 13:33N 48°30' W 127°05'  
Track history (hours):
 
Tides and Currents Weather Stations Pressure Air Temp Water Temp Dewpoint Dewpoint Depression Visibility Wind Speed Wind Dir Waves Ship Positions

MOL Partner

Last reported at 2016-May-23 02:31 UTC. Time now 2016-May-25 11:06 UTC.
Position N 48°28' W 126°26'.

Length 293 m; draft 13.6 m.

Type: Ship (hazmat cat D). MMSI: 371303000.

Date/timePositionNaut miles runAvg speedWind from/ knotsBaromVisibWave heightAir tempDewpointWater temp
2016-May-23 02:31N 48°28' W 126°26'1213.0
2016-May-23 01:34N 48°28' W 126°07'1313.1
2016-May-23 00:34N 48°29' W 125°48'1313.2
2016-May-22 23:33N 48°30' W 125°28'1413.5
2016-May-22 22:33N 48°31' W 125°07'5012.5
2016-May-22 18:33N 48°17' W 123°55'1413.7
2016-May-22 17:30N 48°15' W 123°34'1111.5
2016-May-22 16:33N 48°09' W 123°20'1817.8
2016-May-22 15:33N 48°12' W 122°54'1919.2
2016-May-22 14:33N 47°58' W 122°34'1514.5
2016-May-22 13:34N 47°44' W 122°26'9 8.9
2016-May-22 12:34N 47°36' W 122°22'1 0.8
2016-May-22 11:32N 47°36' W 122°21'0 0.0
2016-May-22 10:32N 47°36' W 122°20'0 0.0
2016-May-22 09:32N 47°36' W 122°21'0 0.0
2016-May-22 08:32N 47°36' W 122°21'0 0.0
2016-May-22 07:29N 47°36' W 122°20'0 0.0
2016-May-22 06:32N 47°36' W 122°20'0 0.0
2016-May-22 05:32N 47°36' W 122°21'0 0.0
2016-May-22 04:32N 47°36' W 122°21'0 0.0
2016-May-22 03:29N 47°36' W 122°21'0 0.0
2016-May-22 02:32N 47°36' W 122°21'0 0.0
2016-May-22 01:32N 47°36' W 122°21'0 0.0
2016-May-22 00:32N 47°36' W 122°21'0 0.0
2016-May-21 23:32N 47°36' W 122°21'0 0.0
2016-May-21 22:32N 47°36' W 122°21'0 0.0
2016-May-21 21:29N 47°36' W 122°21'0 0.0
2016-May-21 20:32N 47°36' W 122°21'0 0.0
2016-May-21 19:32N 47°36' W 122°21'0 0.0
2016-May-21 18:32N 47°36' W 122°21'0 0.0
2016-May-21 17:33N 47°36' W 122°21'0 0.0
2016-May-21 16:32N 47°36' W 122°21'0 0.0
2016-May-21 15:33N 47°36' W 122°20'0 0.0
2016-May-21 14:32N 47°36' W 122°20'0 0.0
2016-May-21 13:33N 47°36' W 122°21'0 0.0
2016-May-21 12:32N 47°36' W 122°21'0 0.0
2016-May-21 11:32N 47°36' W 122°21'0 0.0
2016-May-21 10:32N 47°36' W 122°21'0 0.0
2016-May-21 09:32N 47°36' W 122°20'0 0.0
2016-May-21 08:32N 47°36' W 122°21'0 0.0
2016-May-21 07:32N 47°36' W 122°20'0 0.0
2016-May-21 06:32N 47°36' W 122°21'0 0.0
2016-May-21 05:32N 47°36' W 122°21'0 0.0
2016-May-21 04:32N 47°36' W 122°21'0 0.0
2016-May-21 03:32N 47°36' W 122°21'0 0.0
2016-May-21 02:33N 47°36' W 122°20'0 0.0
2016-May-21 01:32N 47°36' W 122°21'0 0.0
2016-May-21 00:32N 47°36' W 122°21'0 0.0
2016-May-20 23:33N 47°36' W 122°21'0 0.0
2016-May-20 22:33N 47°36' W 122°21'0 0.0
2016-May-20 21:32N 47°36' W 122°21'0 0.0
2016-May-20 20:32N 47°36' W 122°21'0 0.0
2016-May-20 19:32N 47°36' W 122°20'0 0.0
2016-May-20 18:32N 47°36' W 122°21'0 0.0
2016-May-20 17:32N 47°36' W 122°21'0 0.0
2016-May-20 16:32N 47°36' W 122°20'0 0.0
2016-May-20 15:32N 47°36' W 122°21'0 0.0
2016-May-20 14:32N 47°36' W 122°21'0 0.0
2016-May-20 13:34N 47°36' W 122°21'5 4.5
2016-May-20 12:33N 47°38' W 122°27'1414.5
2016-May-20 11:33N 47°52' W 122°29'1818.2
2016-May-20 10:33N 48°08' W 122°43'1919.1
2016-May-20 09:33N 48°12' W 123°10'1313.1
2016-May-20 08:32N 48°13' W 123°30'1211.7
2016-May-20 07:33N 48°23' W 123°22'1010.4
2016-May-20 06:33N 48°31' W 123°13'1313.4
2016-May-20 05:33N 48°44' W 123°08'1110.6
2016-May-20 04:33N 48°55' W 123°10'6 6.0
2016-May-20 03:33N 49°01' W 123°09'0 0.0
2016-May-20 02:33N 49°01' W 123°09'0 0.0
2016-May-20 01:33N 49°01' W 123°09'0 0.0
2016-May-20 00:33N 49°01' W 123°09'0 0.0
2016-May-19 23:33N 49°01' W 123°09'0 0.0
2016-May-19 22:33N 49°01' W 123°09'0 0.0
2016-May-19 21:33N 49°01' W 123°09'0 0.0
2016-May-19 20:33N 49°01' W 123°09'0 0.0
2016-May-19 19:24N 49°01' W 123°09'0 0.0
2016-May-19 18:33N 49°01' W 123°09'0 0.0
2016-May-19 17:33N 49°01' W 123°09'0 0.0
2016-May-19 16:30N 49°01' W 123°09'0 0.0
2016-May-19 15:33N 49°01' W 123°09'0 0.0
2016-May-19 14:33N 49°01' W 123°09'0 0.0
2016-May-19 13:33N 49°01' W 123°09'0 0.0
2016-May-19 12:33N 49°01' W 123°09'0 0.0
2016-May-19 11:33N 49°01' W 123°09'0 0.0
2016-May-19 10:33N 49°01' W 123°09'0 0.0
2016-May-19 09:33N 49°01' W 123°09'0 0.0
2016-May-19 08:33N 49°01' W 123°09'0 0.0
2016-May-19 07:33N 49°01' W 123°09'0 0.0
2016-May-19 06:33N 49°01' W 123°09'0 0.0
2016-May-19 05:33N 49°01' W 123°09'0 0.0
2016-May-19 04:33N 49°01' W 123°09'0 0.0
2016-May-19 03:33N 49°01' W 123°09'0 0.0
2016-May-19 02:33N 49°01' W 123°09'0 0.0
2016-May-19 01:33N 49°01' W 123°09'0 0.0
2016-May-19 00:33N 49°01' W 123°09'0 0.0
2016-May-18 23:33N 49°01' W 123°09'0 0.0
2016-May-18 22:33N 49°01' W 123°09'0 0.0
2016-May-18 21:33N 49°01' W 123°09'0 0.0
2016-May-18 20:33N 49°01' W 123°09'0 0.0
2016-May-18 19:24N 49°01' W 123°09'0 0.0
2016-May-18 18:33N 49°01' W 123°09'0 0.0
2016-May-18 17:33N 49°01' W 123°09'0 0.0
2016-May-18 16:33N 49°01' W 123°09'0 0.0
2016-May-18 15:33N 49°01' W 123°09'0 0.0
2016-May-18 14:33N 49°01' W 123°09'0 0.0
2016-May-18 13:33N 49°01' W 123°09'0 0.0
2016-May-18 12:33N 49°01' W 123°09'0 0.0
2016-May-18 11:33N 49°01' W 123°09'0 0.0
2016-May-18 10:33N 49°01' W 123°09'0 0.0
2016-May-18 09:33N 49°01' W 123°09'0 0.0
2016-May-18 08:33N 49°01' W 123°09'0 0.0
2016-May-18 07:33N 49°01' W 123°09'0 0.0
2016-May-18 06:33N 49°01' W 123°09'0 0.0
2016-May-18 05:33N 49°01' W 123°09'6 6.2
2016-May-18 04:33N 48°55' W 123°05'1313.0
2016-May-18 03:33N 48°43' W 123°12'1717.3
2016-May-18 02:33N 48°26' W 123°10'1211.8
2016-May-18 01:33N 48°19' W 123°25'9 9.2
2016-May-18 00:33N 48°13' W 123°36'1110.9
2016-May-17 23:33N 48°13' W 123°52'3811.6
2016-May-17 20:17N 48°29' W 124°45'912.8
2016-May-17 19:33N 48°29' W 124°59'1312.7
2016-May-17 18:33N 48°28' W 125°18'1212.3
2016-May-17 17:33N 48°29' W 125°36'1312.7
2016-May-17 16:33N 48°29' W 125°56'1919.3
2016-May-17 15:33N 48°29' W 126°25'1414.1
2016-May-17 14:33N 48°29' W 126°46'1312.7
2016-May-17 13:33N 48°30' W 127°05'  

Dump ship's entire track history